sensor_id;sensor_type;location;lat;lon;timestamp;P1;durP1;ratioP1;P2;durP2;ratioP2
8038;SDS011;4062;49.844;8.120;2022-08-14T00:02:00;0.43;;;0.33;;
8038;SDS011;4062;49.844;8.120;2022-08-14T00:04:03;0.40;;;0.30;;
8038;SDS011;4062;49.844;8.120;2022-08-14T00:06:04;0.70;;;0.47;;
8038;SDS011;4062;49.844;8.120;2022-08-14T00:08:05;0.50;;;0.40;;
8038;SDS011;4062;49.844;8.120;2022-08-14T00:10:08;0.47;;;0.40;;
8038;SDS011;4062;49.844;8.120;2022-08-14T00:12:12;0.40;;;0.30;;
8038;SDS011;4062;49.844;8.120;2022-08-14T00:14:13;0.50;;;0.40;;
8038;SDS011;4062;49.844;8.120;2022-08-14T00:16:14;0.40;;;0.40;;
8038;SDS011;4062;49.844;8.120;2022-08-14T00:18:16;0.70;;;0.70;;
8038;SDS011;4062;49.844;8.120;2022-08-14T00:20:24;0.40;;;0.30;;
8038;SDS011;4062;49.844;8.120;2022-08-14T00:22:31;0.40;;;0.40;;
8038;SDS011;4062;49.844;8.120;2022-08-14T00:24:32;0.50;;;0.40;;
8038;SDS011;4062;49.844;8.120;2022-08-14T00:26:32;0.50;;;0.40;;
8038;SDS011;4062;49.844;8.120;2022-08-14T00:28:34;0.67;;;0.60;;
8038;SDS011;4062;49.844;8.120;2022-08-14T00:30:35;0.40;;;0.30;;
8038;SDS011;4062;49.844;8.120;2022-08-14T00:32:36;0.50;;;0.40;;
8038;SDS011;4062;49.844;8.120;2022-08-14T00:34:37;0.60;;;0.60;;
8038;SDS011;4062;49.844;8.120;2022-08-14T00:36:38;0.47;;;0.37;;
8038;SDS011;4062;49.844;8.120;2022-08-14T00:38:39;0.50;;;0.30;;
8038;SDS011;4062;49.844;8.120;2022-08-14T00:40:39;0.50;;;0.40;;
8038;SDS011;4062;49.844;8.120;2022-08-14T00:42:41;0.50;;;0.47;;
8038;SDS011;4062;49.844;8.120;2022-08-14T00:44:42;0.50;;;0.43;;
8038;SDS011;4062;49.844;8.120;2022-08-14T00:46:43;0.50;;;0.30;;
8038;SDS011;4062;49.844;8.120;2022-08-14T00:48:44;0.60;;;0.60;;
8038;SDS011;4062;49.844;8.120;2022-08-14T00:50:45;0.50;;;0.40;;
8038;SDS011;4062;49.844;8.120;2022-08-14T00:52:46;0.73;;;0.73;;
8038;SDS011;4062;49.844;8.120;2022-08-14T00:54:51;0.80;;;0.80;;
8038;SDS011;4062;49.844;8.120;2022-08-14T00:56:53;0.50;;;0.47;;
8038;SDS011;4062;49.844;8.120;2022-08-14T00:58:54;0.60;;;0.60;;
8038;SDS011;4062;49.844;8.120;2022-08-14T01:00:59;0.50;;;0.33;;
8038;SDS011;4062;49.844;8.120;2022-08-14T01:03:11;0.50;;;0.40;;
8038;SDS011;4062;49.844;8.120;2022-08-14T01:05:12;0.40;;;0.30;;
8038;SDS011;4062;49.844;8.120;2022-08-14T01:07:39;0.60;;;0.40;;
8038;SDS011;4062;49.844;8.120;2022-08-14T01:09:41;0.50;;;0.47;;
8038;SDS011;4062;49.844;8.120;2022-08-14T01:11:43;0.50;;;0.30;;
8038;SDS011;4062;49.844;8.120;2022-08-14T01:13:44;0.50;;;0.30;;
8038;SDS011;4062;49.844;8.120;2022-08-14T01:15:47;0.40;;;0.40;;
8038;SDS011;4062;49.844;8.120;2022-08-14T01:17:56;0.50;;;0.40;;
8038;SDS011;4062;49.844;8.120;2022-08-14T01:20:22;0.50;;;0.50;;
8038;SDS011;4062;49.844;8.120;2022-08-14T01:22:42;0.40;;;0.30;;
8038;SDS011;4062;49.844;8.120;2022-08-14T01:24:45;0.50;;;0.40;;
8038;SDS011;4062;49.844;8.120;2022-08-14T01:26:46;1.93;;;0.60;;
8038;SDS011;4062;49.844;8.120;2022-08-14T01:28:51;0.50;;;0.43;;
8038;SDS011;4062;49.844;8.120;2022-08-14T01:30:56;0.50;;;0.40;;
8038;SDS011;4062;49.844;8.120;2022-08-14T01:32:58;0.50;;;0.40;;
8038;SDS011;4062;49.844;8.120;2022-08-14T01:34:58;0.50;;;0.43;;
8038;SDS011;4062;49.844;8.120;2022-08-14T01:36:59;0.50;;;0.50;;
8038;SDS011;4062;49.844;8.120;2022-08-14T01:39:01;0.50;;;0.50;;
8038;SDS011;4062;49.844;8.120;2022-08-14T01:41:06;0.50;;;0.40;;
8038;SDS011;4062;49.844;8.120;2022-08-14T01:43:11;0.57;;;0.50;;
8038;SDS011;4062;49.844;8.120;2022-08-14T01:45:14;0.50;;;0.50;;
8038;SDS011;4062;49.844;8.120;2022-08-14T01:47:15;0.70;;;0.70;;
8038;SDS011;4062;49.844;8.120;2022-08-14T01:49:17;0.50;;;0.43;;
8038;SDS011;4062;49.844;8.120;2022-08-14T01:51:20;0.40;;;0.40;;
8038;SDS011;4062;49.844;8.120;2022-08-14T01:53:25;0.40;;;0.33;;
8038;SDS011;4062;49.844;8.120;2022-08-14T01:55:27;0.50;;;0.40;;
8038;SDS011;4062;49.844;8.120;2022-08-14T01:57:32;0.50;;;0.43;;
8038;SDS011;4062;49.844;8.120;2022-08-14T01:59:37;0.60;;;0.60;;
8038;SDS011;4062;49.844;8.120;2022-08-14T02:01:39;0.50;;;0.50;;
8038;SDS011;4062;49.844;8.120;2022-08-14T02:03:42;0.70;;;0.67;;
8038;SDS011;4062;49.844;8.120;2022-08-14T02:05:43;0.70;;;0.70;;
8038;SDS011;4062;49.844;8.120;2022-08-14T02:07:44;0.50;;;0.40;;
8038;SDS011;4062;49.844;8.120;2022-08-14T02:09:45;0.50;;;0.40;;
8038;SDS011;4062;49.844;8.120;2022-08-14T02:11:46;0.50;;;0.40;;
8038;SDS011;4062;49.844;8.120;2022-08-14T02:13:59;0.67;;;0.67;;
8038;SDS011;4062;49.844;8.120;2022-08-14T02:16:03;1.27;;;0.50;;
8038;SDS011;4062;49.844;8.120;2022-08-14T02:18:05;0.50;;;0.43;;
8038;SDS011;4062;49.844;8.120;2022-08-14T02:20:06;0.60;;;0.47;;
8038;SDS011;4062;49.844;8.120;2022-08-14T02:22:07;0.50;;;0.50;;
8038;SDS011;4062;49.844;8.120;2022-08-14T02:24:08;0.50;;;0.40;;
8038;SDS011;4062;49.844;8.120;2022-08-14T02:26:13;0.50;;;0.40;;
8038;SDS011;4062;49.844;8.120;2022-08-14T02:28:24;0.50;;;0.40;;
8038;SDS011;4062;49.844;8.120;2022-08-14T02:30:26;0.50;;;0.40;;
8038;SDS011;4062;49.844;8.120;2022-08-14T02:32:28;0.77;;;0.77;;
8038;SDS011;4062;49.844;8.120;2022-08-14T02:34:33;0.50;;;0.40;;
8038;SDS011;4062;49.844;8.120;2022-08-14T02:36:38;0.50;;;0.40;;
8038;SDS011;4062;49.844;8.120;2022-08-14T02:38:40;0.50;;;0.50;;
8038;SDS011;4062;49.844;8.120;2022-08-14T02:40:41;0.50;;;0.40;;
8038;SDS011;4062;49.844;8.120;2022-08-14T02:42:42;0.70;;;0.70;;
8038;SDS011;4062;49.844;8.120;2022-08-14T02:44:43;0.50;;;0.50;;
8038;SDS011;4062;49.844;8.120;2022-08-14T02:46:44;0.60;;;0.40;;
8038;SDS011;4062;49.844;8.120;2022-08-14T02:48:45;0.60;;;0.60;;
8038;SDS011;4062;49.844;8.120;2022-08-14T02:50:46;0.70;;;0.50;;
8038;SDS011;4062;49.844;8.120;2022-08-14T02:52:48;0.63;;;0.63;;
8038;SDS011;4062;49.844;8.120;2022-08-14T02:54:48;0.60;;;0.60;;
8038;SDS011;4062;49.844;8.120;2022-08-14T02:56:51;0.50;;;0.50;;
8038;SDS011;4062;49.844;8.120;2022-08-14T02:58:54;0.50;;;0.40;;
8038;SDS011;4062;49.844;8.120;2022-08-14T03:00:56;0.50;;;0.40;;
8038;SDS011;4062;49.844;8.120;2022-08-14T03:02:58;0.50;;;0.40;;
8038;SDS011;4062;49.844;8.120;2022-08-14T03:05:01;0.50;;;0.40;;
8038;SDS011;4062;49.844;8.120;2022-08-14T03:07:02;0.50;;;0.40;;
8038;SDS011;4062;49.844;8.120;2022-08-14T03:09:03;0.47;;;0.37;;
8038;SDS011;4062;49.844;8.120;2022-08-14T03:11:05;0.50;;;0.40;;
8038;SDS011;4062;49.844;8.120;2022-08-14T03:13:08;0.50;;;0.40;;
8038;SDS011;4062;49.844;8.120;2022-08-14T03:15:09;0.40;;;0.40;;
8038;SDS011;4062;49.844;8.120;2022-08-14T03:17:13;0.60;;;0.40;;
8038;SDS011;4062;49.844;8.120;2022-08-14T03:19:15;0.50;;;0.47;;
8038;SDS011;4062;49.844;8.120;2022-08-14T03:21:17;0.50;;;0.50;;
8038;SDS011;4062;49.844;8.120;2022-08-14T03:23:20;0.50;;;0.40;;
8038;SDS011;4062;49.844;8.120;2022-08-14T03:25:21;0.40;;;0.30;;
8038;SDS011;4062;49.844;8.120;2022-08-14T03:27:22;0.63;;;0.63;;
8038;SDS011;4062;49.844;8.120;2022-08-14T03:29:22;0.50;;;0.50;;
8038;SDS011;4062;49.844;8.120;2022-08-14T03:31:24;0.50;;;0.50;;
8038;SDS011;4062;49.844;8.120;2022-08-14T03:33:24;0.50;;;0.43;;
8038;SDS011;4062;49.844;8.120;2022-08-14T03:35:27;0.50;;;0.50;;
8038;SDS011;4062;49.844;8.120;2022-08-14T03:37:29;0.50;;;0.40;;
8038;SDS011;4062;49.844;8.120;2022-08-14T03:39:30;0.50;;;0.50;;
8038;SDS011;4062;49.844;8.120;2022-08-14T03:41:30;0.50;;;0.40;;
8038;SDS011;4062;49.844;8.120;2022-08-14T03:43:32;0.70;;;0.63;;
8038;SDS011;4062;49.844;8.120;2022-08-14T03:45:35;0.50;;;0.47;;
8038;SDS011;4062;49.844;8.120;2022-08-14T03:47:39;0.53;;;0.53;;
8038;SDS011;4062;49.844;8.120;2022-08-14T03:49:40;0.70;;;0.60;;
8038;SDS011;4062;49.844;8.120;2022-08-14T03:51:42;0.40;;;0.30;;
8038;SDS011;4062;49.844;8.120;2022-08-14T03:53:44;0.70;;;0.70;;
8038;SDS011;4062;49.844;8.120;2022-08-14T03:55:46;0.50;;;0.40;;
8038;SDS011;4062;49.844;8.120;2022-08-14T03:57:47;0.50;;;0.40;;
8038;SDS011;4062;49.844;8.120;2022-08-14T03:59:48;0.73;;;0.73;;
8038;SDS011;4062;49.844;8.120;2022-08-14T04:01:48;0.50;;;0.50;;
8038;SDS011;4062;49.844;8.120;2022-08-14T04:03:52;0.57;;;0.57;;
8038;SDS011;4062;49.844;8.120;2022-08-14T04:05:57;0.60;;;0.50;;
8038;SDS011;4062;49.844;8.120;2022-08-14T04:07:58;0.50;;;0.37;;
8038;SDS011;4062;49.844;8.120;2022-08-14T04:09:59;0.50;;;0.40;;
8038;SDS011;4062;49.844;8.120;2022-08-14T04:12:00;0.50;;;0.40;;
8038;SDS011;4062;49.844;8.120;2022-08-14T04:14:02;0.73;;;0.73;;
8038;SDS011;4062;49.844;8.120;2022-08-14T04:16:06;0.57;;;0.50;;
8038;SDS011;4062;49.844;8.120;2022-08-14T04:18:10;0.50;;;0.40;;
8038;SDS011;4062;49.844;8.120;2022-08-14T04:20:11;0.50;;;0.40;;
8038;SDS011;4062;49.844;8.120;2022-08-14T04:22:12;0.60;;;0.60;;
8038;SDS011;4062;49.844;8.120;2022-08-14T04:24:13;0.50;;;0.40;;
8038;SDS011;4062;49.844;8.120;2022-08-14T04:26:16;0.50;;;0.40;;
8038;SDS011;4062;49.844;8.120;2022-08-14T04:28:20;0.70;;;0.70;;
8038;SDS011;4062;49.844;8.120;2022-08-14T04:30:23;0.50;;;0.50;;
8038;SDS011;4062;49.844;8.120;2022-08-14T04:32:27;0.70;;;0.70;;
8038;SDS011;4062;49.844;8.120;2022-08-14T04:34:28;0.87;;;0.60;;
8038;SDS011;4062;49.844;8.120;2022-08-14T04:36:29;0.40;;;0.40;;
8038;SDS011;4062;49.844;8.120;2022-08-14T04:38:31;0.50;;;0.43;;
8038;SDS011;4062;49.844;8.120;2022-08-14T04:40:50;0.57;;;0.57;;
8038;SDS011;4062;49.844;8.120;2022-08-14T04:43:10;0.40;;;0.30;;
8038;SDS011;4062;49.844;8.120;2022-08-14T04:45:29;1.37;;;0.60;;
8038;SDS011;4062;49.844;8.120;2022-08-14T04:47:35;0.50;;;0.40;;
8038;SDS011;4062;49.844;8.120;2022-08-14T04:49:54;0.40;;;0.40;;
8038;SDS011;4062;49.844;8.120;2022-08-14T04:51:54;0.50;;;0.40;;
8038;SDS011;4062;49.844;8.120;2022-08-14T04:53:55;0.57;;;0.57;;
8038;SDS011;4062;49.844;8.120;2022-08-14T04:55:56;0.50;;;0.50;;
8038;SDS011;4062;49.844;8.120;2022-08-14T04:57:57;0.40;;;0.40;;
8038;SDS011;4062;49.844;8.120;2022-08-14T04:59:58;0.70;;;0.70;;
8038;SDS011;4062;49.844;8.120;2022-08-14T05:01:58;0.50;;;0.40;;
8038;SDS011;4062;49.844;8.120;2022-08-14T05:03:59;0.50;;;0.50;;
8038;SDS011;4062;49.844;8.120;2022-08-14T05:06:01;0.50;;;0.40;;
8038;SDS011;4062;49.844;8.120;2022-08-14T05:08:08;0.50;;;0.50;;
8038;SDS011;4062;49.844;8.120;2022-08-14T05:10:11;0.40;;;0.40;;
8038;SDS011;4062;49.844;8.120;2022-08-14T05:12:12;0.50;;;0.50;;
8038;SDS011;4062;49.844;8.120;2022-08-14T05:14:13;0.50;;;0.50;;
8038;SDS011;4062;49.844;8.120;2022-08-14T05:16:14;0.60;;;0.50;;
8038;SDS011;4062;49.844;8.120;2022-08-14T05:18:16;0.50;;;0.40;;
8038;SDS011;4062;49.844;8.120;2022-08-14T05:20:23;0.50;;;0.47;;
8038;SDS011;4062;49.844;8.120;2022-08-14T05:22:23;0.40;;;0.40;;
8038;SDS011;4062;49.844;8.120;2022-08-14T05:24:24;0.50;;;0.40;;
8038;SDS011;4062;49.844;8.120;2022-08-14T05:26:25;0.50;;;0.40;;
8038;SDS011;4062;49.844;8.120;2022-08-14T05:28:26;0.50;;;0.40;;
8038;SDS011;4062;49.844;8.120;2022-08-14T05:30:31;0.50;;;0.50;;
8038;SDS011;4062;49.844;8.120;2022-08-14T05:32:32;1.90;;;0.80;;
8038;SDS011;4062;49.844;8.120;2022-08-14T05:34:32;0.60;;;0.40;;
8038;SDS011;4062;49.844;8.120;2022-08-14T05:36:33;0.50;;;0.50;;
8038;SDS011;4062;49.844;8.120;2022-08-14T05:38:39;0.50;;;0.50;;
8038;SDS011;4062;49.844;8.120;2022-08-14T05:40:44;0.50;;;0.50;;
8038;SDS011;4062;49.844;8.120;2022-08-14T05:42:46;0.80;;;0.80;;
8038;SDS011;4062;49.844;8.120;2022-08-14T05:44:46;0.50;;;0.40;;
8038;SDS011;4062;49.844;8.120;2022-08-14T05:46:47;0.60;;;0.60;;
8038;SDS011;4062;49.844;8.120;2022-08-14T05:48:49;0.63;;;0.63;;
8038;SDS011;4062;49.844;8.120;2022-08-14T05:50:53;0.50;;;0.50;;
8038;SDS011;4062;49.844;8.120;2022-08-14T05:52:55;0.50;;;0.40;;
8038;SDS011;4062;49.844;8.120;2022-08-14T05:54:56;0.50;;;0.30;;
8038;SDS011;4062;49.844;8.120;2022-08-14T05:56:57;0.50;;;0.50;;
8038;SDS011;4062;49.844;8.120;2022-08-14T05:58:57;0.70;;;0.50;;
8038;SDS011;4062;49.844;8.120;2022-08-14T06:00:58;0.60;;;0.57;;
8038;SDS011;4062;49.844;8.120;2022-08-14T06:02:59;0.50;;;0.50;;
8038;SDS011;4062;49.844;8.120;2022-08-14T06:05:00;0.50;;;0.30;;
8038;SDS011;4062;49.844;8.120;2022-08-14T06:07:02;0.50;;;0.47;;
8038;SDS011;4062;49.844;8.120;2022-08-14T06:09:02;0.90;;;0.90;;
8038;SDS011;4062;49.844;8.120;2022-08-14T06:11:04;0.53;;;0.53;;
8038;SDS011;4062;49.844;8.120;2022-08-14T06:13:07;0.50;;;0.50;;
8038;SDS011;4062;49.844;8.120;2022-08-14T06:15:08;0.50;;;0.50;;
8038;SDS011;4062;49.844;8.120;2022-08-14T06:17:09;0.60;;;0.57;;
8038;SDS011;4062;49.844;8.120;2022-08-14T06:19:10;0.60;;;0.60;;
8038;SDS011;4062;49.844;8.120;2022-08-14T06:21:10;0.50;;;0.40;;
8038;SDS011;4062;49.844;8.120;2022-08-14T06:23:11;0.50;;;0.50;;
8038;SDS011;4062;49.844;8.120;2022-08-14T06:25:12;0.83;;;0.83;;
8038;SDS011;4062;49.844;8.120;2022-08-14T06:27:14;0.53;;;0.50;;
8038;SDS011;4062;49.844;8.120;2022-08-14T06:29:15;0.50;;;0.50;;
8038;SDS011;4062;49.844;8.120;2022-08-14T06:31:16;0.50;;;0.40;;
8038;SDS011;4062;49.844;8.120;2022-08-14T06:33:17;0.60;;;0.60;;
8038;SDS011;4062;49.844;8.120;2022-08-14T06:35:19;0.50;;;0.40;;
8038;SDS011;4062;49.844;8.120;2022-08-14T06:37:21;1.23;;;0.47;;
8038;SDS011;4062;49.844;8.120;2022-08-14T06:39:22;0.60;;;0.60;;
8038;SDS011;4062;49.844;8.120;2022-08-14T06:41:24;0.60;;;0.40;;
8038;SDS011;4062;49.844;8.120;2022-08-14T06:43:24;0.63;;;0.63;;
8038;SDS011;4062;49.844;8.120;2022-08-14T06:45:25;0.50;;;0.50;;
8038;SDS011;4062;49.844;8.120;2022-08-14T06:47:28;0.53;;;0.47;;
8038;SDS011;4062;49.844;8.120;2022-08-14T06:49:29;0.50;;;0.50;;
8038;SDS011;4062;49.844;8.120;2022-08-14T06:51:30;0.63;;;0.63;;
8038;SDS011;4062;49.844;8.120;2022-08-14T06:53:31;0.50;;;0.50;;
8038;SDS011;4062;49.844;8.120;2022-08-14T06:55:31;0.60;;;0.40;;
8038;SDS011;4062;49.844;8.120;2022-08-14T06:57:36;0.50;;;0.40;;
8038;SDS011;4062;49.844;8.120;2022-08-14T06:59:47;0.50;;;0.40;;
8038;SDS011;4062;49.844;8.120;2022-08-14T07:01:47;0.93;;;0.93;;
8038;SDS011;4062;49.844;8.120;2022-08-14T07:04:07;0.50;;;0.50;;
8038;SDS011;4062;49.844;8.120;2022-08-14T07:06:26;0.53;;;0.53;;
8038;SDS011;4062;49.844;8.120;2022-08-14T07:08:28;0.50;;;0.40;;
8038;SDS011;4062;49.844;8.120;2022-08-14T07:10:29;0.73;;;0.73;;
8038;SDS011;4062;49.844;8.120;2022-08-14T07:12:31;0.50;;;0.50;;
8038;SDS011;4062;49.844;8.120;2022-08-14T07:14:32;0.50;;;0.40;;
8038;SDS011;4062;49.844;8.120;2022-08-14T07:16:33;0.67;;;0.67;;
8038;SDS011;4062;49.844;8.120;2022-08-14T07:18:35;0.50;;;0.43;;
8038;SDS011;4062;49.844;8.120;2022-08-14T07:20:37;0.50;;;0.40;;
8038;SDS011;4062;49.844;8.120;2022-08-14T07:22:39;0.70;;;0.60;;
8038;SDS011;4062;49.844;8.120;2022-08-14T07:24:40;0.60;;;0.60;;
8038;SDS011;4062;49.844;8.120;2022-08-14T07:26:41;0.50;;;0.40;;
8038;SDS011;4062;49.844;8.120;2022-08-14T07:28:41;0.50;;;0.50;;
8038;SDS011;4062;49.844;8.120;2022-08-14T07:30:42;0.77;;;0.77;;
8038;SDS011;4062;49.844;8.120;2022-08-14T07:32:43;0.50;;;0.50;;
8038;SDS011;4062;49.844;8.120;2022-08-14T07:34:44;0.50;;;0.40;;
8038;SDS011;4062;49.844;8.120;2022-08-14T07:36:45;0.50;;;0.50;;
8038;SDS011;4062;49.844;8.120;2022-08-14T07:38:47;0.47;;;0.37;;
8038;SDS011;4062;49.844;8.120;2022-08-14T07:40:48;0.40;;;0.37;;
8038;SDS011;4062;49.844;8.120;2022-08-14T07:42:50;0.50;;;0.47;;
8038;SDS011;4062;49.844;8.120;2022-08-14T07:44:51;0.50;;;0.50;;
8038;SDS011;4062;49.844;8.120;2022-08-14T07:46:52;0.50;;;0.50;;
8038;SDS011;4062;49.844;8.120;2022-08-14T07:48:53;0.60;;;0.60;;
8038;SDS011;4062;49.844;8.120;2022-08-14T07:50:53;0.50;;;0.37;;
8038;SDS011;4062;49.844;8.120;2022-08-14T07:52:54;0.50;;;0.40;;
8038;SDS011;4062;49.844;8.120;2022-08-14T07:54:55;0.50;;;0.47;;
8038;SDS011;4062;49.844;8.120;2022-08-14T07:56:59;0.50;;;0.40;;
8038;SDS011;4062;49.844;8.120;2022-08-14T07:59:00;0.50;;;0.40;;
8038;SDS011;4062;49.844;8.120;2022-08-14T08:01:01;0.57;;;0.57;;
8038;SDS011;4062;49.844;8.120;2022-08-14T08:03:02;0.50;;;0.40;;
8038;SDS011;4062;49.844;8.120;2022-08-14T08:05:11;0.50;;;0.50;;
8038;SDS011;4062;49.844;8.120;2022-08-14T08:07:13;0.50;;;0.43;;
8038;SDS011;4062;49.844;8.120;2022-08-14T08:09:14;0.60;;;0.60;;
8038;SDS011;4062;49.844;8.120;2022-08-14T08:11:17;0.50;;;0.40;;
8038;SDS011;4062;49.844;8.120;2022-08-14T08:13:21;0.40;;;0.30;;
8038;SDS011;4062;49.844;8.120;2022-08-14T08:15:26;0.50;;;0.40;;
8038;SDS011;4062;49.844;8.120;2022-08-14T08:17:35;0.50;;;0.40;;
8038;SDS011;4062;49.844;8.120;2022-08-14T08:19:36;0.60;;;0.60;;
8038;SDS011;4062;49.844;8.120;2022-08-14T08:21:38;0.50;;;0.40;;
8038;SDS011;4062;49.844;8.120;2022-08-14T08:23:39;0.50;;;0.50;;
8038;SDS011;4062;49.844;8.120;2022-08-14T08:25:40;0.50;;;0.40;;
8038;SDS011;4062;49.844;8.120;2022-08-14T08:30:13;0.50;;;0.43;;
8038;SDS011;4062;49.844;8.120;2022-08-14T08:32:13;0.50;;;0.40;;
8038;SDS011;4062;49.844;8.120;2022-08-14T08:34:15;0.53;;;0.53;;
8038;SDS011;4062;49.844;8.120;2022-08-14T08:36:16;0.40;;;0.40;;
8038;SDS011;4062;49.844;8.120;2022-08-14T08:38:19;0.40;;;0.30;;
8038;SDS011;4062;49.844;8.120;2022-08-14T08:40:24;0.50;;;0.50;;
8038;SDS011;4062;49.844;8.120;2022-08-14T08:42:30;0.50;;;0.40;;
8038;SDS011;4062;49.844;8.120;2022-08-14T08:44:31;0.40;;;0.40;;
8038;SDS011;4062;49.844;8.120;2022-08-14T08:46:32;0.50;;;0.43;;
8038;SDS011;4062;49.844;8.120;2022-08-14T08:48:43;0.50;;;0.50;;
8038;SDS011;4062;49.844;8.120;2022-08-14T08:50:53;1.53;;;0.50;;
8038;SDS011;4062;49.844;8.120;2022-08-14T08:53:01;0.50;;;0.40;;
8038;SDS011;4062;49.844;8.120;2022-08-14T08:55:05;0.50;;;0.50;;
8038;SDS011;4062;49.844;8.120;2022-08-14T08:57:10;0.50;;;0.43;;
8038;SDS011;4062;49.844;8.120;2022-08-14T08:59:16;0.70;;;0.70;;
8038;SDS011;4062;49.844;8.120;2022-08-14T09:01:30;0.50;;;0.40;;
8038;SDS011;4062;49.844;8.120;2022-08-14T09:03:31;0.50;;;0.50;;
8038;SDS011;4062;49.844;8.120;2022-08-14T09:05:33;0.50;;;0.37;;
8038;SDS011;4062;49.844;8.120;2022-08-14T09:07:37;0.50;;;0.47;;
8038;SDS011;4062;49.844;8.120;2022-08-14T09:09:38;0.40;;;0.33;;
8038;SDS011;4062;49.844;8.120;2022-08-14T09:11:50;0.50;;;0.40;;
8038;SDS011;4062;49.844;8.120;2022-08-14T09:13:53;0.53;;;0.53;;
8038;SDS011;4062;49.844;8.120;2022-08-14T09:15:55;0.50;;;0.40;;
8038;SDS011;4062;49.844;8.120;2022-08-14T09:17:56;0.50;;;0.50;;
8038;SDS011;4062;49.844;8.120;2022-08-14T09:19:57;0.60;;;0.60;;
8038;SDS011;4062;49.844;8.120;2022-08-14T09:21:58;0.63;;;0.63;;
8038;SDS011;4062;49.844;8.120;2022-08-14T09:23:59;0.50;;;0.50;;
8038;SDS011;4062;49.844;8.120;2022-08-14T09:26:01;0.40;;;0.30;;
8038;SDS011;4062;49.844;8.120;2022-08-14T09:28:02;0.80;;;0.53;;
8038;SDS011;4062;49.844;8.120;2022-08-14T09:30:05;0.50;;;0.40;;
8038;SDS011;4062;49.844;8.120;2022-08-14T09:32:08;0.60;;;0.60;;
8038;SDS011;4062;49.844;8.120;2022-08-14T09:46:55;0.80;;;0.50;;
8038;SDS011;4062;49.844;8.120;2022-08-14T09:49:03;0.47;;;0.43;;
8038;SDS011;4062;49.844;8.120;2022-08-14T09:51:06;0.80;;;0.80;;
8038;SDS011;4062;49.844;8.120;2022-08-14T09:53:07;0.50;;;0.40;;
8038;SDS011;4062;49.844;8.120;2022-08-14T09:55:15;0.50;;;0.40;;
8038;SDS011;4062;49.844;8.120;2022-08-14T09:57:25;0.50;;;0.50;;
8038;SDS011;4062;49.844;8.120;2022-08-14T09:59:38;0.50;;;0.30;;
8038;SDS011;4062;49.844;8.120;2022-08-14T10:01:45;0.60;;;0.60;;
8038;SDS011;4062;49.844;8.120;2022-08-14T10:03:50;0.70;;;0.70;;
8038;SDS011;4062;49.844;8.120;2022-08-14T10:06:08;0.70;;;0.70;;
8038;SDS011;4062;49.844;8.120;2022-08-14T10:08:18;0.60;;;0.60;;
8038;SDS011;4062;49.844;8.120;2022-08-14T10:12:42;0.60;;;0.60;;
8038;SDS011;4062;49.844;8.120;2022-08-14T10:14:49;0.50;;;0.50;;
8038;SDS011;4062;49.844;8.120;2022-08-14T10:16:51;1.17;;;0.50;;
8038;SDS011;4062;49.844;8.120;2022-08-14T10:19:08;0.50;;;0.40;;
8038;SDS011;4062;49.844;8.120;2022-08-14T10:21:14;5.40;;;0.50;;
8038;SDS011;4062;49.844;8.120;2022-08-14T10:23:17;0.60;;;0.50;;
8038;SDS011;4062;49.844;8.120;2022-08-14T10:25:23;0.67;;;0.67;;
8038;SDS011;4062;49.844;8.120;2022-08-14T10:27:27;0.50;;;0.50;;
8038;SDS011;4062;49.844;8.120;2022-08-14T10:29:37;0.53;;;0.53;;
8038;SDS011;4062;49.844;8.120;2022-08-14T10:31:39;0.77;;;0.77;;
8038;SDS011;4062;49.844;8.120;2022-08-14T10:33:41;0.60;;;0.50;;
8038;SDS011;4062;49.844;8.120;2022-08-14T10:35:43;2.30;;;1.00;;
8038;SDS011;4062;49.844;8.120;2022-08-14T10:37:45;0.60;;;0.60;;
8038;SDS011;4062;49.844;8.120;2022-08-14T10:40:01;0.50;;;0.50;;
8038;SDS011;4062;49.844;8.120;2022-08-14T10:42:03;0.73;;;0.73;;
8038;SDS011;4062;49.844;8.120;2022-08-14T10:44:12;0.50;;;0.50;;
8038;SDS011;4062;49.844;8.120;2022-08-14T10:46:16;0.53;;;0.53;;
8038;SDS011;4062;49.844;8.120;2022-08-14T10:48:18;0.50;;;0.40;;
8038;SDS011;4062;49.844;8.120;2022-08-14T10:50:33;0.50;;;0.50;;
8038;SDS011;4062;49.844;8.120;2022-08-14T10:52:37;0.80;;;0.80;;
8038;SDS011;4062;49.844;8.120;2022-08-14T10:54:40;0.93;;;0.87;;
8038;SDS011;4062;49.844;8.120;2022-08-14T10:56:45;0.80;;;0.80;;
8038;SDS011;4062;49.844;8.120;2022-08-14T10:58:46;0.80;;;0.80;;
8038;SDS011;4062;49.844;8.120;2022-08-14T11:00:55;1.57;;;0.83;;
8038;SDS011;4062;49.844;8.120;2022-08-14T11:03:00;0.90;;;0.90;;
8038;SDS011;4062;49.844;8.120;2022-08-14T11:05:13;1.63;;;0.97;;
8038;SDS011;4062;49.844;8.120;2022-08-14T11:07:18;1.00;;;0.93;;
8038;SDS011;4062;49.844;8.120;2022-08-14T11:09:19;0.90;;;0.90;;
8038;SDS011;4062;49.844;8.120;2022-08-14T11:11:20;1.97;;;1.00;;
8038;SDS011;4062;49.844;8.120;2022-08-14T11:13:28;0.90;;;0.73;;
8038;SDS011;4062;49.844;8.120;2022-08-14T11:15:30;1.10;;;1.00;;
8038;SDS011;4062;49.844;8.120;2022-08-14T11:17:30;7.10;;;1.80;;
8038;SDS011;4062;49.844;8.120;2022-08-14T11:19:32;2.03;;;1.30;;
8038;SDS011;4062;49.844;8.120;2022-08-14T11:21:33;2.60;;;1.60;;
8038;SDS011;4062;49.844;8.120;2022-08-14T11:23:39;4.20;;;2.07;;
8038;SDS011;4062;49.844;8.120;2022-08-14T11:25:42;2.20;;;1.70;;
8038;SDS011;4062;49.844;8.120;2022-08-14T11:27:45;7.17;;;1.00;;
8038;SDS011;4062;49.844;8.120;2022-08-14T11:29:47;2.17;;;1.87;;
8038;SDS011;4062;49.844;8.120;2022-08-14T11:31:49;10.23;;;3.90;;
8038;SDS011;4062;49.844;8.120;2022-08-14T11:33:51;4.73;;;2.27;;
8038;SDS011;4062;49.844;8.120;2022-08-14T11:36:00;2.30;;;1.70;;
8038;SDS011;4062;49.844;8.120;2022-08-14T11:38:05;1.87;;;1.60;;
8038;SDS011;4062;49.844;8.120;2022-08-14T11:40:14;3.00;;;2.70;;
8038;SDS011;4062;49.844;8.120;2022-08-14T11:42:23;4.93;;;2.10;;
8038;SDS011;4062;49.844;8.120;2022-08-14T11:44:26;8.57;;;1.90;;
8038;SDS011;4062;49.844;8.120;2022-08-14T11:46:27;1.90;;;1.80;;
8038;SDS011;4062;49.844;8.120;2022-08-14T11:48:27;2.03;;;1.83;;
8038;SDS011;4062;49.844;8.120;2022-08-14T11:50:29;4.43;;;2.30;;
8038;SDS011;4062;49.844;8.120;2022-08-14T11:52:33;2.30;;;1.67;;
8038;SDS011;4062;49.844;8.120;2022-08-14T11:54:36;2.43;;;1.50;;
8038;SDS011;4062;49.844;8.120;2022-08-14T11:56:38;1.80;;;1.70;;
8038;SDS011;4062;49.844;8.120;2022-08-14T11:58:42;3.87;;;2.00;;
8038;SDS011;4062;49.844;8.120;2022-08-14T12:00:53;2.03;;;1.93;;
8038;SDS011;4062;49.844;8.120;2022-08-14T12:02:59;6.80;;;1.40;;
8038;SDS011;4062;49.844;8.120;2022-08-14T12:05:01;2.50;;;1.43;;
8038;SDS011;4062;49.844;8.120;2022-08-14T12:07:05;2.10;;;1.50;;
8038;SDS011;4062;49.844;8.120;2022-08-14T12:09:06;8.63;;;2.07;;
8038;SDS011;4062;49.844;8.120;2022-08-14T12:11:08;4.60;;;4.17;;
8038;SDS011;4062;49.844;8.120;2022-08-14T12:13:17;5.53;;;2.80;;
8038;SDS011;4062;49.844;8.120;2022-08-14T12:15:29;3.67;;;2.50;;
8038;SDS011;4062;49.844;8.120;2022-08-14T12:17:44;5.67;;;2.47;;
8038;SDS011;4062;49.844;8.120;2022-08-14T12:19:53;4.13;;;3.43;;
8038;SDS011;4062;49.844;8.120;2022-08-14T12:22:01;2.50;;;2.10;;
8038;SDS011;4062;49.844;8.120;2022-08-14T12:24:06;2.93;;;2.73;;
8038;SDS011;4062;49.844;8.120;2022-08-14T12:26:15;2.47;;;2.27;;
8038;SDS011;4062;49.844;8.120;2022-08-14T12:28:19;2.77;;;2.50;;
8038;SDS011;4062;49.844;8.120;2022-08-14T12:30:33;5.27;;;2.77;;
8038;SDS011;4062;49.844;8.120;2022-08-14T12:32:43;4.20;;;2.13;;
8038;SDS011;4062;49.844;8.120;2022-08-14T12:34:50;3.33;;;2.00;;
8038;SDS011;4062;49.844;8.120;2022-08-14T12:37:03;3.57;;;2.50;;
8038;SDS011;4062;49.844;8.120;2022-08-14T12:39:17;9.40;;;3.10;;
8038;SDS011;4062;49.844;8.120;2022-08-14T12:41:22;2.77;;;2.50;;
8038;SDS011;4062;49.844;8.120;2022-08-14T12:43:25;6.30;;;2.30;;
8038;SDS011;4062;49.844;8.120;2022-08-14T12:45:30;3.40;;;2.67;;
8038;SDS011;4062;49.844;8.120;2022-08-14T12:47:33;5.60;;;2.47;;
8038;SDS011;4062;49.844;8.120;2022-08-14T12:49:34;2.70;;;2.50;;
8038;SDS011;4062;49.844;8.120;2022-08-14T12:51:35;2.50;;;2.40;;
8038;SDS011;4062;49.844;8.120;2022-08-14T12:53:36;4.10;;;2.00;;
8038;SDS011;4062;49.844;8.120;2022-08-14T12:55:38;7.30;;;2.20;;
8038;SDS011;4062;49.844;8.120;2022-08-14T12:57:45;2.37;;;2.17;;
8038;SDS011;4062;49.844;8.120;2022-08-14T12:59:47;2.40;;;2.30;;
8038;SDS011;4062;49.844;8.120;2022-08-14T13:01:54;1.90;;;1.70;;
8038;SDS011;4062;49.844;8.120;2022-08-14T13:04:29;2.53;;;2.20;;
8038;SDS011;4062;49.844;8.120;2022-08-14T13:06:23;10.03;;;2.43;;